Planet Ace — 3EYF9 — position and weather

sailwx.info

Track history (hours):
 
Tides and Currents Weather Stations Pressure Air Temp Water Temp Dewpoint Dewpoint Depression Visibility Wind Speed Wind Dir Waves Ship Positions

Planet Ace

Last reported at 2016-Dec-05 20:30 UTC. Time now 2016-Dec-05 20:41 UTC.
Position N 52°22' E 001°56'.

Length 188 m; beam 28.2 m.

Type: Cargo ship. MMSI: 352168000.

Date/timePositionNaut miles runAvg speedWind from/ knotsBaromVisibWave heightAir tempDewpointWater temp
2016-Dec-05 20:30N 52°22' E 001°56'2512.8
2016-Dec-05 18:33N 52°47' E 001°58'1313.2
2016-Dec-05 17:33N 52°54' E 001°39'1312.9
2016-Dec-05 16:33N 53°04' E 001°25'1413.8
2016-Dec-05 15:33N 53°16' E 001°14'1413.8
2016-Dec-05 14:31N 53°28' E 001°02'4114.0
2016-Dec-05 11:34N 54°01' E 000°19'1514.6
2016-Dec-05 10:33N 54°12' E 000°03'1515.0
2016-Dec-05 09:33N 54°24' W 000°14'1515.3
2016-Dec-05 08:33N 54°35' W 000°31'3115.5
2016-Dec-05 06:33N 54°58' W 001°08'1110.8
2016-Dec-05 05:33N 55°00' W 001°26'2 1.2
2016-Dec-05 04:04N 54°59' W 001°28'0 0.0
2016-Dec-05 02:31N 54°59' W 001°28'0 0.0
2016-Dec-04 23:22N 54°59' W 001°28'0 0.0
2016-Dec-04 20:28N 54°59' W 001°28'0 0.0
2016-Dec-04 19:28N 54°59' W 001°28'0 0.0
2016-Dec-04 18:22N 54°59' W 001°28'0 0.0
2016-Dec-04 17:28N 54°59' W 001°28'0 0.0
2016-Dec-04 16:31N 54°59' W 001°28'0 0.0
2016-Dec-04 15:31N 54°59' W 001°28'0 0.0
2016-Dec-04 14:25N 54°59' W 001°28'0 0.0
2016-Dec-04 13:31N 54°59' W 001°28'0 0.0
2016-Dec-04 12:18N 54°59' W 001°28'0 0.0
2016-Dec-04 11:33N 54°59' W 001°28'0 0.0
2016-Dec-04 10:24N 54°59' W 001°28'0 0.0
2016-Dec-04 09:30N 54°59' W 001°28'0 0.0
2016-Dec-04 08:33N 54°59' W 001°28'0 0.0
2016-Dec-04 07:33N 54°59' W 001°28'0 0.0
2016-Dec-04 06:33N 54°59' W 001°28'0 0.0
2016-Dec-04 05:33N 54°59' W 001°28'0 0.0
2016-Dec-04 04:33N 54°59' W 001°28'0 0.0
2016-Dec-04 03:33N 54°59' W 001°28'0 0.0
2016-Dec-04 02:27N 54°59' W 001°28'0 0.0
2016-Dec-04 01:27N 54°59' W 001°28'0 0.0
2016-Dec-04 00:33N 54°59' W 001°28'0 0.0
2016-Dec-03 23:33N 54°59' W 001°28'0 0.0
2016-Dec-03 22:27N 54°59' W 001°28'0 0.0
2016-Dec-03 21:33N 54°59' W 001°28'3 3.0
2016-Dec-03 20:33N 55°01' W 001°24'1211.5
2016-Dec-03 19:33N 55°03' W 001°04'25715.0
2016-Dec-03 02:26N 55°20' E 006°25'1315.4
2016-Dec-03 01:33N 55°21' E 006°49'1515.1
2016-Dec-03 00:33N 55°23' E 007°15'1514.7
2016-Dec-02 23:33N 55°24' E 007°41'1514.7
2016-Dec-02 22:33N 55°25' E 008°07'1110.6
2016-Dec-02 21:33N 55°29' E 008°24'2 1.6
2016-Dec-02 20:17N 55°28' E 008°27'0 0.0
2016-Dec-02 19:32N 55°28' E 008°27'0 0.0
2016-Dec-02 18:32N 55°28' E 008°27'0 0.0
2016-Dec-02 17:32N 55°28' E 008°27'0 0.0
2016-Dec-02 16:26N 55°28' E 008°27'0 0.0
2016-Dec-02 15:29N 55°28' E 008°27'0 0.0
2016-Dec-02 14:29N 55°28' E 008°27'0 0.0
2016-Dec-02 13:32N 55°28' E 008°27'0 0.0
2016-Dec-02 12:32N 55°28' E 008°27'0 0.0
2016-Dec-02 11:32N 55°28' E 008°27'0 0.0
2016-Dec-02 10:29N 55°28' E 008°27'1 1.6
2016-Dec-02 09:34N 55°28' E 008°25'8 7.8
2016-Dec-02 08:34N 55°25' E 008°12'9 8.9
2016-Dec-02 07:34N 55°20' E 007°59'1413.7
2016-Dec-02 06:33N 55°11' E 007°40'1313.0
2016-Dec-02 05:33N 55°04' E 007°22'1212.4
2016-Dec-02 04:33N 54°55' E 007°06'1212.5
2016-Dec-02 03:33N 54°48' E 006°48'11112.2
2016-Dec-01 18:31N 53°25' E 004°43'1914.9
2016-Dec-01 17:14N 53°08' E 004°29'1115.4
2016-Dec-01 16:33N 52°59' E 004°20'1515.4
2016-Dec-01 15:33N 52°46' E 004°08'1615.5
2016-Dec-01 14:33N 52°34' E 003°52'1515.0
2016-Dec-01 13:33N 52°24' E 003°34'1514.6
2016-Dec-01 12:31N 52°12' E 003°17'1513.4
2016-Dec-01 11:22N 52°01' E 003°01'1215.0
2016-Dec-01 10:33N 51°49' E 002°53'1514.9
2016-Dec-01 09:33N 51°36' E 002°43'1212.2
2016-Dec-01 08:34N 51°24' E 002°42'1212.2
2016-Dec-01 07:33N 51°25' E 003°02'8 8.3
2016-Dec-01 06:33N 51°20' E 003°13'0 0.4
2016-Dec-01 05:33N 51°20' E 003°13'1 0.5
2016-Dec-01 04:31N 51°19' E 003°13'0 0.0
2016-Dec-01 03:31N 51°19' E 003°13'0 0.0
2016-Dec-01 02:31N 51°19' E 003°13'0 0.0
2016-Dec-01 01:31N 51°19' E 003°13'0 0.0
2016-Dec-01 00:31N 51°19' E 003°13'0 0.0
2016-Nov-30 23:31N 51°19' E 003°13'0 0.0
2016-Nov-30 22:31N 51°19' E 003°13'0 0.0
2016-Nov-30 21:31N 51°19' E 003°13'0 0.0
2016-Nov-30 20:31N 51°19' E 003°13'0 0.0
2016-Nov-30 19:31N 51°19' E 003°13'0 0.0
2016-Nov-30 18:31N 51°19' E 003°13'0 0.0
2016-Nov-30 17:34N 51°19' E 003°13'0 0.0
2016-Nov-30 16:33N 51°19' E 003°13'0 0.0
2016-Nov-30 15:33N 51°19' E 003°13'0 0.0
2016-Nov-30 14:33N 51°19' E 003°13'0 0.0
2016-Nov-30 13:33N 51°19' E 003°13'0 0.0
2016-Nov-30 12:33N 51°19' E 003°13'0 0.0
2016-Nov-30 11:33N 51°19' E 003°13'0 0.0
2016-Nov-30 10:33N 51°19' E 003°13'0 0.0
2016-Nov-30 09:33N 51°19' E 003°13'0 0.0
2016-Nov-30 08:33N 51°19' E 003°13'0 0.0
2016-Nov-30 07:33N 51°19' E 003°13'0 0.0
2016-Nov-30 06:33N 51°19' E 003°13'0 0.0
2016-Nov-30 05:33N 51°19' E 003°13'0 0.0
2016-Nov-30 04:33N 51°19' E 003°13'0 0.0
2016-Nov-30 03:33N 51°19' E 003°13'1 1.4
2016-Nov-30 02:32N 51°18' E 003°14'0 0.0
2016-Nov-30 01:32N 51°18' E 003°14'0 0.0
2016-Nov-30 00:32N 51°18' E 003°14'0 0.0
2016-Nov-29 23:32N 51°18' E 003°14'0 0.0
2016-Nov-29 22:32N 51°18' E 003°14'0 0.0
2016-Nov-29 21:32N 51°18' E 003°14'0 0.0
2016-Nov-29 20:32N 51°18' E 003°14'0 0.0
2016-Nov-29 19:32N 51°18' E 003°14'0 0.0
2016-Nov-29 18:32N 51°18' E 003°14'0 0.2
2016-Nov-29 17:33N 51°18' E 003°14'2 1.6
2016-Nov-29 16:33N 51°20' E 003°13'2 2.0
2016-Nov-29 15:33N 51°22' E 003°11'5 4.9
2016-Nov-29 14:33N 51°24' E 003°05'7 7.3
2016-Nov-29 13:33N 51°22' E 002°54'1010.1
2016-Nov-29 12:34N 51°22' E 002°37'6 5.8
2016-Nov-29 11:34N 51°21' E 002°28'6 6.1
2016-Nov-29 10:33N 51°19' E 002°19'7 6.7
2016-Nov-29 09:34N 51°15' E 002°11'1211.7
2016-Nov-29 08:33N 51°09' E 001°55'1212.1
2016-Nov-29 07:33N 51°00' E 001°41'1211.6
2016-Nov-29 06:34N 50°52' E 001°27'5112.7
2016-Nov-29 02:32N 50°13' E 000°37'1313.0
2016-Nov-29 01:33N 50°03' E 000°24'1313.1
2016-Nov-29 00:33N 49°53' E 000°12'1313.5
2016-Nov-28 23:33N 49°41' E 000°00'1212.0
2016-Nov-28 22:33N 49°30' E 000°03'5 4.8
2016-Nov-28 21:33N 49°29' E 000°10'1 1.1
2016-Nov-28 20:32N 49°28' E 000°12'0 0.0
2016-Nov-28 19:32N 49°28' E 000°12'0 0.0
2016-Nov-28 18:32N 49°28' E 000°12'0 0.0
2016-Nov-28 17:32N 49°28' E 000°12'0 0.0
2016-Nov-28 16:32N 49°28' E 000°12'0 0.0
2016-Nov-28 15:32N 49°28' E 000°12'0 0.0
2016-Nov-28 14:32N 49°28' E 000°12'0 0.0
2016-Nov-28 13:29N 49°28' E 000°12'0 0.0
2016-Nov-28 12:32N 49°28' E 000°12'0 0.0
2016-Nov-28 11:32N 49°28' E 000°12'0 0.0
2016-Nov-28 10:32N 49°28' E 000°12'0 0.0
2016-Nov-28 09:32N 49°28' E 000°12'0 0.0
2016-Nov-28 08:29N 49°28' E 000°12'0 0.0
2016-Nov-28 07:32N 49°28' E 000°12'0 0.0
2016-Nov-28 06:32N 49°28' E 000°12'0 0.0
2016-Nov-28 05:32N 49°28' E 000°12'0 0.0
2016-Nov-28 04:32N 49°28' E 000°12'0 0.0
2016-Nov-28 03:32N 49°28' E 000°12'0 0.0
2016-Nov-28 02:32N 49°28' E 000°12'0 0.0
2016-Nov-28 01:32N 49°28' E 000°12'0 0.0
2016-Nov-28 00:32N 49°28' E 000°12'0 0.0
2016-Nov-27 23:32N 49°28' E 000°12'0 0.0
2016-Nov-27 22:32N 49°28' E 000°12'0 0.0
2016-Nov-27 21:32N 49°28' E 000°12'0 0.0
2016-Nov-27 20:32N 49°28' E 000°12'0 0.0
2016-Nov-27 19:31N 49°28' E 000°12'0 0.0
2016-Nov-27 18:31N 49°28' E 000°12'0 0.0
2016-Nov-27 17:31N 49°28' E 000°12'0 0.0
2016-Nov-27 16:31N 49°28' E 000°12'0 0.0
2016-Nov-27 15:31N 49°28' E 000°12'0 0.0
2016-Nov-27 14:31N 49°28' E 000°12'1 1.2
2016-Nov-27 13:33N 49°29' E 000°10'5 4.7
2016-Nov-27 12:34N 49°30' E 000°03'1010.3
2016-Nov-27 11:33N 49°33' W 000°12'9 9.4
2016-Nov-27 10:34N 49°36' W 000°25'1010.0
2016-Nov-27 09:33N 49°40' W 000°39'1414.1
2016-Nov-27 08:33N 49°46' W 000°59'1716.6
2016-Nov-27 07:34N 49°51' W 001°24'1817.5
2016-Nov-27 06:33N 49°52' W 001°51'3616.6
2016-Nov-27 04:24N 49°51' W 002°46'1515.9
2016-Nov-27 03:28N 49°43' W 003°06'8115.1
2016-Nov-26 22:05N 49°01' W 004°53'713.7
2016-Nov-26 21:33N 48°58' W 005°03'1313.5
2016-Nov-26 20:33N 48°51' W 005°21'1313.5
2016-Nov-26 19:34N 48°44' W 005°38'  
Track history (hours):
 
Tides and Currents Weather Stations Pressure Air Temp Water Temp Dewpoint Dewpoint Depression Visibility Wind Speed Wind Dir Waves Ship Positions

Planet Ace

Last reported at 2016-Dec-05 20:30 UTC. Time now 2016-Dec-05 20:41 UTC.
Position N 52°22' E 001°56'.

Length 188 m; beam 28.2 m.

Type: Cargo ship. MMSI: 352168000.

Date/timePositionNaut miles runAvg speedWind from/ knotsBaromVisibWave heightAir tempDewpointWater temp
2016-Dec-05 20:30N 52°22' E 001°56'2512.8
2016-Dec-05 18:33N 52°47' E 001°58'1313.2
2016-Dec-05 17:33N 52°54' E 001°39'1312.9
2016-Dec-05 16:33N 53°04' E 001°25'1413.8
2016-Dec-05 15:33N 53°16' E 001°14'1413.8
2016-Dec-05 14:31N 53°28' E 001°02'4114.0
2016-Dec-05 11:34N 54°01' E 000°19'1514.6
2016-Dec-05 10:33N 54°12' E 000°03'1515.0
2016-Dec-05 09:33N 54°24' W 000°14'1515.3
2016-Dec-05 08:33N 54°35' W 000°31'3115.5
2016-Dec-05 06:33N 54°58' W 001°08'1110.8
2016-Dec-05 05:33N 55°00' W 001°26'2 1.2
2016-Dec-05 04:04N 54°59' W 001°28'0 0.0
2016-Dec-05 02:31N 54°59' W 001°28'0 0.0
2016-Dec-04 23:22N 54°59' W 001°28'0 0.0
2016-Dec-04 20:28N 54°59' W 001°28'0 0.0
2016-Dec-04 19:28N 54°59' W 001°28'0 0.0
2016-Dec-04 18:22N 54°59' W 001°28'0 0.0
2016-Dec-04 17:28N 54°59' W 001°28'0 0.0
2016-Dec-04 16:31N 54°59' W 001°28'0 0.0
2016-Dec-04 15:31N 54°59' W 001°28'0 0.0
2016-Dec-04 14:25N 54°59' W 001°28'0 0.0
2016-Dec-04 13:31N 54°59' W 001°28'0 0.0
2016-Dec-04 12:18N 54°59' W 001°28'0 0.0
2016-Dec-04 11:33N 54°59' W 001°28'0 0.0
2016-Dec-04 10:24N 54°59' W 001°28'0 0.0
2016-Dec-04 09:30N 54°59' W 001°28'0 0.0
2016-Dec-04 08:33N 54°59' W 001°28'0 0.0
2016-Dec-04 07:33N 54°59' W 001°28'0 0.0
2016-Dec-04 06:33N 54°59' W 001°28'0 0.0
2016-Dec-04 05:33N 54°59' W 001°28'0 0.0
2016-Dec-04 04:33N 54°59' W 001°28'0 0.0
2016-Dec-04 03:33N 54°59' W 001°28'0 0.0
2016-Dec-04 02:27N 54°59' W 001°28'0 0.0
2016-Dec-04 01:27N 54°59' W 001°28'0 0.0
2016-Dec-04 00:33N 54°59' W 001°28'0 0.0
2016-Dec-03 23:33N 54°59' W 001°28'0 0.0
2016-Dec-03 22:27N 54°59' W 001°28'0 0.0
2016-Dec-03 21:33N 54°59' W 001°28'3 3.0
2016-Dec-03 20:33N 55°01' W 001°24'1211.5
2016-Dec-03 19:33N 55°03' W 001°04'25715.0
2016-Dec-03 02:26N 55°20' E 006°25'1315.4
2016-Dec-03 01:33N 55°21' E 006°49'1515.1
2016-Dec-03 00:33N 55°23' E 007°15'1514.7
2016-Dec-02 23:33N 55°24' E 007°41'1514.7
2016-Dec-02 22:33N 55°25' E 008°07'1110.6
2016-Dec-02 21:33N 55°29' E 008°24'2 1.6
2016-Dec-02 20:17N 55°28' E 008°27'0 0.0
2016-Dec-02 19:32N 55°28' E 008°27'0 0.0
2016-Dec-02 18:32N 55°28' E 008°27'0 0.0
2016-Dec-02 17:32N 55°28' E 008°27'0 0.0
2016-Dec-02 16:26N 55°28' E 008°27'0 0.0
2016-Dec-02 15:29N 55°28' E 008°27'0 0.0
2016-Dec-02 14:29N 55°28' E 008°27'0 0.0
2016-Dec-02 13:32N 55°28' E 008°27'0 0.0
2016-Dec-02 12:32N 55°28' E 008°27'0 0.0
2016-Dec-02 11:32N 55°28' E 008°27'0 0.0
2016-Dec-02 10:29N 55°28' E 008°27'1 1.6
2016-Dec-02 09:34N 55°28' E 008°25'8 7.8
2016-Dec-02 08:34N 55°25' E 008°12'9 8.9
2016-Dec-02 07:34N 55°20' E 007°59'1413.7
2016-Dec-02 06:33N 55°11' E 007°40'1313.0
2016-Dec-02 05:33N 55°04' E 007°22'1212.4
2016-Dec-02 04:33N 54°55' E 007°06'1212.5
2016-Dec-02 03:33N 54°48' E 006°48'11112.2
2016-Dec-01 18:31N 53°25' E 004°43'1914.9
2016-Dec-01 17:14N 53°08' E 004°29'1115.4
2016-Dec-01 16:33N 52°59' E 004°20'1515.4
2016-Dec-01 15:33N 52°46' E 004°08'1615.5
2016-Dec-01 14:33N 52°34' E 003°52'1515.0
2016-Dec-01 13:33N 52°24' E 003°34'1514.6
2016-Dec-01 12:31N 52°12' E 003°17'1513.4
2016-Dec-01 11:22N 52°01' E 003°01'1215.0
2016-Dec-01 10:33N 51°49' E 002°53'1514.9
2016-Dec-01 09:33N 51°36' E 002°43'1212.2
2016-Dec-01 08:34N 51°24' E 002°42'1212.2
2016-Dec-01 07:33N 51°25' E 003°02'8 8.3
2016-Dec-01 06:33N 51°20' E 003°13'0 0.4
2016-Dec-01 05:33N 51°20' E 003°13'1 0.5
2016-Dec-01 04:31N 51°19' E 003°13'0 0.0
2016-Dec-01 03:31N 51°19' E 003°13'0 0.0
2016-Dec-01 02:31N 51°19' E 003°13'0 0.0
2016-Dec-01 01:31N 51°19' E 003°13'0 0.0
2016-Dec-01 00:31N 51°19' E 003°13'0 0.0
2016-Nov-30 23:31N 51°19' E 003°13'0 0.0
2016-Nov-30 22:31N 51°19' E 003°13'0 0.0
2016-Nov-30 21:31N 51°19' E 003°13'0 0.0
2016-Nov-30 20:31N 51°19' E 003°13'0 0.0
2016-Nov-30 19:31N 51°19' E 003°13'0 0.0
2016-Nov-30 18:31N 51°19' E 003°13'0 0.0
2016-Nov-30 17:34N 51°19' E 003°13'0 0.0
2016-Nov-30 16:33N 51°19' E 003°13'0 0.0
2016-Nov-30 15:33N 51°19' E 003°13'0 0.0
2016-Nov-30 14:33N 51°19' E 003°13'0 0.0
2016-Nov-30 13:33N 51°19' E 003°13'0 0.0
2016-Nov-30 12:33N 51°19' E 003°13'0 0.0
2016-Nov-30 11:33N 51°19' E 003°13'0 0.0
2016-Nov-30 10:33N 51°19' E 003°13'0 0.0
2016-Nov-30 09:33N 51°19' E 003°13'0 0.0
2016-Nov-30 08:33N 51°19' E 003°13'0 0.0
2016-Nov-30 07:33N 51°19' E 003°13'0 0.0
2016-Nov-30 06:33N 51°19' E 003°13'0 0.0
2016-Nov-30 05:33N 51°19' E 003°13'0 0.0
2016-Nov-30 04:33N 51°19' E 003°13'0 0.0
2016-Nov-30 03:33N 51°19' E 003°13'1 1.4
2016-Nov-30 02:32N 51°18' E 003°14'0 0.0
2016-Nov-30 01:32N 51°18' E 003°14'0 0.0
2016-Nov-30 00:32N 51°18' E 003°14'0 0.0
2016-Nov-29 23:32N 51°18' E 003°14'0 0.0
2016-Nov-29 22:32N 51°18' E 003°14'0 0.0
2016-Nov-29 21:32N 51°18' E 003°14'0 0.0
2016-Nov-29 20:32N 51°18' E 003°14'0 0.0
2016-Nov-29 19:32N 51°18' E 003°14'0 0.0
2016-Nov-29 18:32N 51°18' E 003°14'0 0.2
2016-Nov-29 17:33N 51°18' E 003°14'2 1.6
2016-Nov-29 16:33N 51°20' E 003°13'2 2.0
2016-Nov-29 15:33N 51°22' E 003°11'5 4.9
2016-Nov-29 14:33N 51°24' E 003°05'7 7.3
2016-Nov-29 13:33N 51°22' E 002°54'1010.1
2016-Nov-29 12:34N 51°22' E 002°37'6 5.8
2016-Nov-29 11:34N 51°21' E 002°28'6 6.1
2016-Nov-29 10:33N 51°19' E 002°19'7 6.7
2016-Nov-29 09:34N 51°15' E 002°11'1211.7
2016-Nov-29 08:33N 51°09' E 001°55'1212.1
2016-Nov-29 07:33N 51°00' E 001°41'1211.6
2016-Nov-29 06:34N 50°52' E 001°27'5112.7
2016-Nov-29 02:32N 50°13' E 000°37'1313.0
2016-Nov-29 01:33N 50°03' E 000°24'1313.1
2016-Nov-29 00:33N 49°53' E 000°12'1313.5
2016-Nov-28 23:33N 49°41' E 000°00'1212.0
2016-Nov-28 22:33N 49°30' E 000°03'5 4.8
2016-Nov-28 21:33N 49°29' E 000°10'1 1.1
2016-Nov-28 20:32N 49°28' E 000°12'0 0.0
2016-Nov-28 19:32N 49°28' E 000°12'0 0.0
2016-Nov-28 18:32N 49°28' E 000°12'0 0.0
2016-Nov-28 17:32N 49°28' E 000°12'0 0.0
2016-Nov-28 16:32N 49°28' E 000°12'0 0.0
2016-Nov-28 15:32N 49°28' E 000°12'0 0.0
2016-Nov-28 14:32N 49°28' E 000°12'0 0.0
2016-Nov-28 13:29N 49°28' E 000°12'0 0.0
2016-Nov-28 12:32N 49°28' E 000°12'0 0.0
2016-Nov-28 11:32N 49°28' E 000°12'0 0.0
2016-Nov-28 10:32N 49°28' E 000°12'0 0.0
2016-Nov-28 09:32N 49°28' E 000°12'0 0.0
2016-Nov-28 08:29N 49°28' E 000°12'0 0.0
2016-Nov-28 07:32N 49°28' E 000°12'0 0.0
2016-Nov-28 06:32N 49°28' E 000°12'0 0.0
2016-Nov-28 05:32N 49°28' E 000°12'0 0.0
2016-Nov-28 04:32N 49°28' E 000°12'0 0.0
2016-Nov-28 03:32N 49°28' E 000°12'0 0.0
2016-Nov-28 02:32N 49°28' E 000°12'0 0.0
2016-Nov-28 01:32N 49°28' E 000°12'0 0.0
2016-Nov-28 00:32N 49°28' E 000°12'0 0.0
2016-Nov-27 23:32N 49°28' E 000°12'0 0.0
2016-Nov-27 22:32N 49°28' E 000°12'0 0.0
2016-Nov-27 21:32N 49°28' E 000°12'0 0.0
2016-Nov-27 20:32N 49°28' E 000°12'0 0.0
2016-Nov-27 19:31N 49°28' E 000°12'0 0.0
2016-Nov-27 18:31N 49°28' E 000°12'0 0.0
2016-Nov-27 17:31N 49°28' E 000°12'0 0.0
2016-Nov-27 16:31N 49°28' E 000°12'0 0.0
2016-Nov-27 15:31N 49°28' E 000°12'0 0.0
2016-Nov-27 14:31N 49°28' E 000°12'1 1.2
2016-Nov-27 13:33N 49°29' E 000°10'5 4.7
2016-Nov-27 12:34N 49°30' E 000°03'1010.3
2016-Nov-27 11:33N 49°33' W 000°12'9 9.4
2016-Nov-27 10:34N 49°36' W 000°25'1010.0
2016-Nov-27 09:33N 49°40' W 000°39'1414.1
2016-Nov-27 08:33N 49°46' W 000°59'1716.6
2016-Nov-27 07:34N 49°51' W 001°24'1817.5
2016-Nov-27 06:33N 49°52' W 001°51'3616.6
2016-Nov-27 04:24N 49°51' W 002°46'1515.9
2016-Nov-27 03:28N 49°43' W 003°06'8115.1
2016-Nov-26 22:05N 49°01' W 004°53'713.7
2016-Nov-26 21:33N 48°58' W 005°03'1313.5
2016-Nov-26 20:33N 48°51' W 005°21'1313.5
2016-Nov-26 19:34N 48°44' W 005°38'  

Dump ship's entire track history